Time;durP1;ratioP1;P1;durP2;ratioP2;P2;SDS_P1;SDS_P2;PMS_P1;PMS_P2;Temp;Humidity;BMP_temperature;BMP_pressure;BME280_temperature;BME280_humidity;BME280_pressure;Samples;Min_cycle;Max_cycle;Signal;HPM_P1;HPM_P2
2023/08/02 00:00:52;;;;;;;3.13;1.20;;;16.10;99.90;;;;;;4176743;28;20203;-74
2023/08/02 00:02:54;;;;;;;4.07;1.30;;;16.10;99.90;;;;;;4175100;28;20216;-76
2023/08/02 00:04:56;;;;;;;2.23;1.20;;;16.10;99.90;;;;;;4173157;28;20210;-78
2023/08/02 00:06:58;;;;;;;2.47;1.50;;;16.10;99.90;;;;;;4176233;28;20263;-78
2023/08/02 00:09:00;;;;;;;1.93;1.30;;;16.10;99.90;;;;;;4165415;28;20218;-75
2023/08/02 00:11:05;;;;;;;5.77;1.10;;;16.10;99.90;;;;;;4167865;28;20217;-74
2023/08/02 00:13:07;;;;;;;3.43;1.40;;;16.20;99.90;;;;;;4171673;28;20297;-78
2023/08/02 00:15:10;;;;;;;6.83;1.27;;;16.10;99.90;;;;;;4168912;28;20225;-78
2023/08/02 00:17:13;;;;;;;2.00;1.20;;;16.20;99.90;;;;;;4172556;28;20738;-76
2023/08/02 00:19:15;;;;;;;3.70;1.30;;;16.20;99.90;;;;;;4172366;28;20249;-76
2023/08/02 00:21:17;;;;;;;2.80;1.10;;;16.20;99.90;;;;;;4162977;28;20294;-76
2023/08/02 00:23:19;;;;;;;2.00;1.10;;;16.20;99.90;;;;;;4171806;28;20226;-76
2023/08/02 00:25:21;;;;;;;2.70;1.03;;;16.20;99.90;;;;;;4174217;28;20214;-76
2023/08/02 00:27:23;;;;;;;3.37;1.03;;;16.20;99.90;;;;;;4173633;28;20798;-76
2023/08/02 00:29:24;;;;;;;2.90;1.20;;;16.20;99.90;;;;;;4178575;28;20308;-76
2023/08/02 00:31:26;;;;;;;5.30;1.50;;;16.20;99.90;;;;;;4168457;28;20219;-75
2023/08/02 00:33:29;;;;;;;2.43;1.00;;;16.20;99.90;;;;;;4166427;28;20294;-76
2023/08/02 00:35:30;;;;;;;2.10;1.27;;;16.20;99.90;;;;;;4175447;28;20210;-76
2023/08/02 00:37:32;;;;;;;3.33;1.40;;;16.20;99.90;;;;;;4168741;28;20829;-75
2023/08/02 00:39:35;;;;;;;3.37;1.30;;;16.20;99.90;;;;;;4176202;28;20574;-76
2023/08/02 00:41:37;;;;;;;2.07;1.37;;;16.20;99.90;;;;;;4169705;28;20630;-76
2023/08/02 00:43:40;;;;;;;4.73;1.30;;;16.20;99.90;;;;;;4170347;28;20310;-76
2023/08/02 00:45:41;;;;;;;1.97;1.00;;;16.10;99.90;;;;;;4172501;28;20218;-76
2023/08/02 00:47:43;;;;;;;1.80;1.33;;;16.10;99.90;;;;;;4170917;28;20227;-76
2023/08/02 00:49:46;;;;;;;4.40;1.30;;;16.10;99.90;;;;;;4174235;28;20682;-74
2023/08/02 00:51:48;;;;;;;2.13;1.00;;;16.20;99.90;;;;;;4181167;28;20210;-75
2023/08/02 00:53:50;;;;;;;3.17;1.10;;;16.20;99.90;;;;;;4176391;28;20249;-74
2023/08/02 00:55:52;;;;;;;5.30;1.73;;;16.20;99.90;;;;;;4165937;28;20208;-75
2023/08/02 00:57:56;;;;;;;2.60;1.20;;;16.10;99.90;;;;;;4173988;28;20265;-75
2023/08/02 00:59:58;;;;;;;2.13;1.10;;;16.20;99.90;;;;;;4176452;28;20245;-75
2023/08/02 01:02:00;;;;;;;3.03;1.13;;;16.20;99.90;;;;;;4170860;28;20302;-75
2023/08/02 01:04:02;;;;;;;2.03;1.00;;;16.20;99.90;;;;;;4172987;28;20868;-77
2023/08/02 01:06:11;;;;;;;2.60;1.20;;;16.20;99.90;;;;;;4171010;28;20285;-76
2023/08/02 01:08:20;;;;;;;3.03;1.13;;;16.20;99.90;;;;;;4170255;28;20242;-76
2023/08/02 01:10:30;;;;;;;3.23;1.20;;;16.20;99.90;;;;;;4176476;28;20213;-76
2023/08/02 01:12:34;;;;;;;4.37;1.23;;;16.20;99.90;;;;;;4176479;28;20256;-74
2023/08/02 01:14:39;;;;;;;3.00;1.40;;;16.20;99.90;;;;;;4169872;28;20250;-75
2023/08/02 01:16:42;;;;;;;4.13;1.30;;;16.20;99.90;;;;;;4177162;28;20229;-74
2023/08/02 01:18:43;;;;;;;2.30;1.20;;;16.20;99.90;;;;;;4170980;28;20675;-74
2023/08/02 01:20:46;;;;;;;3.80;1.20;;;16.20;99.90;;;;;;4174624;28;20215;-78
2023/08/02 01:22:48;;;;;;;4.23;1.30;;;16.20;99.90;;;;;;4174501;28;20218;-74
2023/08/02 01:24:50;;;;;;;2.73;1.50;;;16.20;99.90;;;;;;4174529;28;20302;-76
2023/08/02 01:26:53;;;;;;;3.03;1.53;;;16.20;99.90;;;;;;4169886;28;20327;-74
2023/08/02 01:28:57;;;;;;;2.27;1.20;;;16.20;99.90;;;;;;4172612;28;20217;-74
2023/08/02 01:31:01;;;;;;;3.17;1.23;;;16.20;99.90;;;;;;4175215;28;20230;-75
2023/08/02 01:33:04;;;;;;;3.87;1.20;;;16.20;99.90;;;;;;4169657;28;20207;-76
2023/08/02 01:35:07;;;;;;;2.03;1.10;;;16.20;99.90;;;;;;4171059;28;20229;-74
2023/08/02 01:37:11;;;;;;;3.03;1.40;;;16.20;99.90;;;;;;4174519;28;20227;-74
2023/08/02 01:39:12;;;;;;;1.93;1.07;;;16.20;99.90;;;;;;4170712;28;20812;-74
2023/08/02 01:41:14;;;;;;;3.37;1.17;;;16.20;99.90;;;;;;4176395;28;20647;-75
2023/08/02 01:43:16;;;;;;;3.47;1.40;;;16.10;99.90;;;;;;4174551;28;20714;-76
2023/08/02 01:45:18;;;;;;;4.43;1.27;;;16.10;99.90;;;;;;4178009;28;20250;-76
2023/08/02 01:47:20;;;;;;;3.03;1.20;;;16.20;99.90;;;;;;4173534;28;20270;-77
2023/08/02 01:49:22;;;;;;;2.93;1.10;;;16.20;99.90;;;;;;4172784;28;20212;-77
2023/08/02 01:51:27;;;;;;;5.87;1.13;;;16.20;99.90;;;;;;4171775;28;20237;-76
2023/08/02 01:53:30;;;;;;;3.90;1.30;;;16.10;99.90;;;;;;4171933;28;20306;-76
2023/08/02 01:55:32;;;;;;;3.23;1.10;;;16.10;99.90;;;;;;4171065;28;20207;-76
2023/08/02 01:57:34;;;;;;;5.30;1.47;;;16.10;99.90;;;;;;4169805;28;20773;-75
2023/08/02 01:59:36;;;;;;;1.40;1.00;;;16.10;99.90;;;;;;4169933;28;20302;-75
2023/08/02 02:01:41;;;;;;;1.60;0.90;;;16.10;99.90;;;;;;4172636;28;20241;-76
2023/08/02 02:03:42;;;;;;;4.50;1.80;;;16.10;99.90;;;;;;4173406;28;20261;-76
2023/08/02 02:05:52;;;;;;;6.73;1.30;;;16.20;99.90;;;;;;4168735;28;20242;-75
2023/08/02 02:07:54;;;;;;;2.73;1.00;;;16.10;99.90;;;;;;4173576;28;20231;-75
2023/08/02 02:09:57;;;;;;;3.47;0.93;;;16.10;99.90;;;;;;4168616;28;20231;-75
2023/08/02 02:11:59;;;;;;;3.40;1.27;;;16.10;99.90;;;;;;4174422;28;20301;-76
2023/08/02 02:14:01;;;;;;;2.43;1.10;;;16.10;99.90;;;;;;4173705;28;20215;-75
2023/08/02 02:16:03;;;;;;;4.97;1.40;;;16.10;99.90;;;;;;4168410;28;20742;-76
2023/08/02 02:18:05;;;;;;;2.47;1.20;;;16.10;99.90;;;;;;4172598;28;20795;-76
2023/08/02 02:20:08;;;;;;;3.77;1.00;;;16.10;99.90;;;;;;4178814;28;20210;-76
2023/08/02 02:22:09;;;;;;;2.40;1.20;;;16.10;99.90;;;;;;4170353;28;20313;-75
2023/08/02 02:24:11;;;;;;;3.97;1.17;;;16.10;99.90;;;;;;4170020;28;20227;-75
2023/08/02 02:26:14;;;;;;;3.33;1.03;;;16.10;99.90;;;;;;4166124;28;20258;-75
2023/08/02 02:28:19;;;;;;;4.60;1.17;;;16.10;99.90;;;;;;4169445;28;20692;-74
2023/08/02 02:30:21;;;;;;;2.87;1.23;;;16.10;99.90;;;;;;4171426;28;20265;-75
2023/08/02 02:32:22;;;;;;;3.27;1.27;;;16.10;99.90;;;;;;4171514;28;20326;-75
2023/08/02 02:34:24;;;;;;;4.67;1.20;;;16.10;99.90;;;;;;4170364;28;20215;-74
2023/08/02 02:36:26;;;;;;;3.73;1.20;;;16.10;99.90;;;;;;4169668;28;20239;-75
2023/08/02 02:38:28;;;;;;;4.60;1.80;;;16.10;99.90;;;;;;4168013;28;20212;-74
2023/08/02 02:40:30;;;;;;;3.93;1.30;;;16.10;99.90;;;;;;4171198;28;20645;-75
2023/08/02 02:42:32;;;;;;;6.03;1.40;;;16.10;99.90;;;;;;4167908;28;20704;-75
2023/08/02 02:44:41;;;;;;;2.20;1.10;;;16.10;99.90;;;;;;4167917;28;20578;-74
2023/08/02 02:46:43;;;;;;;4.20;1.23;;;16.10;99.90;;;;;;4174021;28;20699;-73
2023/08/02 02:48:45;;;;;;;4.63;1.20;;;16.10;99.90;;;;;;4168901;28;20214;-74
2023/08/02 02:50:47;;;;;;;6.10;1.23;;;16.10;99.90;;;;;;4175267;28;20306;-74
2023/08/02 02:52:48;;;;;;;4.07;1.33;;;16.10;99.90;;;;;;4179064;28;20293;-74
2023/08/02 02:54:50;;;;;;;3.90;1.13;;;16.10;99.90;;;;;;4171944;28;20689;-76
2023/08/02 02:56:52;;;;;;;4.93;1.17;;;16.10;99.90;;;;;;4172691;28;20231;-76
2023/08/02 02:58:55;;;;;;;5.53;1.13;;;16.00;99.90;;;;;;4169490;28;20306;-74
2023/08/02 03:00:57;;;;;;;2.17;1.00;;;16.00;99.90;;;;;;4173029;28;20207;-77
2023/08/02 03:02:59;;;;;;;5.60;1.27;;;16.00;99.90;;;;;;4166337;28;20590;-74
2023/08/02 03:05:04;;;;;;;6.63;1.20;;;16.00;99.90;;;;;;4168330;28;20227;-76
2023/08/02 03:07:05;;;;;;;2.80;0.97;;;16.00;99.90;;;;;;4173390;28;20222;-75
2023/08/02 03:09:07;;;;;;;3.33;1.20;;;15.90;99.90;;;;;;4168386;28;20661;-76
2023/08/02 03:11:09;;;;;;;3.80;1.17;;;15.90;99.90;;;;;;4171829;28;20289;-75
2023/08/02 03:13:11;;;;;;;4.77;1.27;;;15.90;99.90;;;;;;4179501;28;20245;-76
2023/08/02 03:15:14;;;;;;;2.47;1.17;;;15.90;99.90;;;;;;4174430;28;20256;-76
2023/08/02 03:17:15;;;;;;;5.60;1.37;;;15.90;99.90;;;;;;4169378;28;20329;-75
2023/08/02 03:19:19;;;;;;;4.00;1.30;;;15.90;99.90;;;;;;4177639;28;20203;-76
2023/08/02 03:21:21;;;;;;;5.10;1.10;;;15.90;99.90;;;;;;4175122;28;20314;-74
2023/08/02 03:23:23;;;;;;;3.63;1.10;;;15.80;99.90;;;;;;4169865;28;20221;-77
2023/08/02 03:25:25;;;;;;;3.93;1.07;;;15.80;99.90;;;;;;4165935;28;20700;-73
2023/08/02 03:27:26;;;;;;;3.40;1.10;;;15.80;99.90;;;;;;4168458;28;20736;-74
2023/08/02 03:29:28;;;;;;;3.53;1.30;;;15.80;99.90;;;;;;4174934;28;20631;-73
2023/08/02 03:31:32;;;;;;;2.87;1.10;;;15.70;99.90;;;;;;4169721;28;20301;-74
2023/08/02 03:33:35;;;;;;;2.97;1.20;;;15.70;99.90;;;;;;4168851;28;20246;-74
2023/08/02 03:35:37;;;;;;;4.47;1.40;;;15.70;99.90;;;;;;4170895;28;20253;-74
2023/08/02 03:37:38;;;;;;;2.50;1.20;;;15.70;99.90;;;;;;4172047;28;20238;-75
2023/08/02 03:39:39;;;;;;;3.40;1.10;;;15.70;99.90;;;;;;4165444;28;20750;-75
2023/08/02 03:41:41;;;;;;;4.13;1.00;;;15.70;99.90;;;;;;4172059;28;20210;-75
2023/08/02 03:43:43;;;;;;;3.13;1.20;;;15.70;99.90;;;;;;4172296;28;20294;-74
2023/08/02 03:45:45;;;;;;;3.77;1.47;;;15.70;99.90;;;;;;4173386;28;20631;-75
2023/08/02 03:47:48;;;;;;;4.20;1.20;;;15.70;99.90;;;;;;4171760;28;20786;-75
2023/08/02 03:49:50;;;;;;;2.93;1.30;;;15.70;99.90;;;;;;4168360;28;20215;-75
2023/08/02 03:51:52;;;;;;;2.63;1.30;;;15.70;99.90;;;;;;4169373;28;20302;-76
2023/08/02 03:53:54;;;;;;;2.40;1.00;;;15.70;99.90;;;;;;4167928;28;20234;-76
2023/08/02 03:55:56;;;;;;;3.30;1.20;;;15.70;99.90;;;;;;4170715;28;20210;-75
2023/08/02 03:57:57;;;;;;;2.37;1.10;;;15.70;99.90;;;;;;4169034;28;20234;-75
2023/08/02 03:59:59;;;;;;;6.20;1.70;;;15.70;99.90;;;;;;4167686;28;20210;-74
2023/08/02 04:02:01;;;;;;;5.93;1.40;;;15.90;99.90;;;;;;4172259;28;20219;-75
2023/08/02 04:04:06;;;;;;;4.00;1.57;;;15.70;99.90;;;;;;4171802;28;20297;-76
2023/08/02 04:06:08;;;;;;;3.63;1.07;;;15.70;99.90;;;;;;4168822;28;20310;-75
2023/08/02 04:08:10;;;;;;;4.80;1.37;;;15.80;99.90;;;;;;4169791;28;20232;-76
2023/08/02 04:10:12;;;;;;;3.27;1.23;;;15.80;99.90;;;;;;4171358;28;20694;-75
2023/08/02 04:12:17;;;;;;;2.87;1.13;;;15.80;99.90;;;;;;4171825;28;20240;-76
2023/08/02 04:14:19;;;;;;;3.73;1.33;;;15.80;99.90;;;;;;4170369;28;20610;-76
2023/08/02 04:16:21;;;;;;;3.70;1.20;;;15.80;99.90;;;;;;4171489;28;20230;-76
2023/08/02 04:18:23;;;;;;;1.73;0.90;;;15.80;99.90;;;;;;4169091;28;20602;-76
2023/08/02 04:20:26;;;;;;;5.07;1.10;;;15.80;99.90;;;;;;4164930;28;20309;-76
2023/08/02 04:22:31;;;;;;;1.70;1.10;;;15.80;99.90;;;;;;4168418;28;20207;-76
2023/08/02 04:24:34;;;;;;;3.77;1.17;;;15.90;99.90;;;;;;4168060;28;20298;-76
2023/08/02 04:26:36;;;;;;;2.37;0.90;;;15.90;99.90;;;;;;4171405;28;20269;-74
2023/08/02 04:28:38;;;;;;;3.03;1.23;;;15.90;99.90;;;;;;4167551;28;20768;-74
2023/08/02 04:30:40;;;;;;;2.00;1.10;;;15.90;99.90;;;;;;4169918;28;20221;-74
2023/08/02 04:32:42;;;;;;;6.17;1.13;;;15.90;99.90;;;;;;4172462;28;20214;-74
2023/08/02 04:34:44;;;;;;;3.07;1.30;;;15.90;99.90;;;;;;4169141;28;20297;-75
2023/08/02 04:36:47;;;;;;;4.70;1.30;;;15.90;99.90;;;;;;4171772;28;20795;-73
2023/08/02 04:38:52;;;;;;;2.87;1.30;;;15.90;99.90;;;;;;4168319;28;20210;-75
2023/08/02 04:40:54;;;;;;;3.77;1.30;;;15.90;99.90;;;;;;4169130;28;20206;-74
2023/08/02 04:42:56;;;;;;;2.87;1.20;;;16.00;99.90;;;;;;4175060;28;20301;-74
2023/08/02 04:44:58;;;;;;;7.17;1.50;;;15.90;99.90;;;;;;4170111;28;20216;-73
2023/08/02 04:47:00;;;;;;;4.70;1.70;;;16.00;99.90;;;;;;4177276;28;20325;-74
2023/08/02 04:49:02;;;;;;;2.80;1.40;;;16.00;99.90;;;;;;4173035;28;20252;-74
2023/08/02 04:51:07;;;;;;;5.13;1.50;;;16.00;99.90;;;;;;4172215;28;20214;-75
2023/08/02 04:53:10;;;;;;;2.23;1.23;;;16.00;99.90;;;;;;4169519;28;20261;-74
2023/08/02 04:55:12;;;;;;;2.57;1.37;;;16.00;99.90;;;;;;4173220;28;20901;-74
2023/08/02 04:57:14;;;;;;;2.73;1.20;;;16.00;99.90;;;;;;4173482;28;20317;-74
2023/08/02 04:59:16;;;;;;;2.10;1.30;;;16.00;99.90;;;;;;4170918;28;20227;-76
2023/08/02 05:01:18;;;;;;;5.10;1.70;;;16.00;99.90;;;;;;4167379;28;20211;-74
2023/08/02 05:03:20;;;;;;;3.47;1.30;;;16.00;99.90;;;;;;4169022;28;20215;-77
2023/08/02 05:05:22;;;;;;;3.50;1.30;;;16.00;99.90;;;;;;4168713;28;20303;-74
2023/08/02 05:07:23;;;;;;;3.73;1.37;;;16.00;99.90;;;;;;4169739;28;20252;-75
2023/08/02 05:09:26;;;;;;;4.87;1.40;;;16.00;99.90;;;;;;4167918;28;20203;-75
2023/08/02 05:11:28;;;;;;;4.57;1.40;;;16.00;99.90;;;;;;4167157;28;20217;-75
2023/08/02 05:13:30;;;;;;;3.50;1.47;;;16.10;99.90;;;;;;4166982;28;20211;-74
2023/08/02 05:15:36;;;;;;;3.60;1.23;;;16.10;99.90;;;;;;4165565;28;20207;-75
2023/08/02 05:17:38;;;;;;;3.33;1.23;;;16.10;99.90;;;;;;4170938;28;20241;-75
2023/08/02 05:19:40;;;;;;;2.83;1.20;;;16.10;99.90;;;;;;4168256;28;20206;-75
2023/08/02 05:21:41;;;;;;;2.80;1.40;;;16.10;99.90;;;;;;4168121;28;20210;-74
2023/08/02 05:23:43;;;;;;;5.00;1.67;;;16.20;99.90;;;;;;4175267;28;20211;-74
2023/08/02 05:25:47;;;;;;;2.97;1.23;;;16.20;99.90;;;;;;4171488;28;20207;-74
2023/08/02 05:27:48;;;;;;;4.03;1.30;;;16.20;99.90;;;;;;4169310;28;20238;-74
2023/08/02 05:29:52;;;;;;;3.17;1.30;;;16.30;99.90;;;;;;4169668;28;20718;-75
2023/08/02 05:31:54;;;;;;;3.00;1.30;;;16.30;99.90;;;;;;4170937;28;20312;-74
2023/08/02 05:33:56;;;;;;;2.23;1.20;;;16.30;99.90;;;;;;4174843;28;20307;-74
2023/08/02 05:36:01;;;;;;;2.70;1.20;;;16.40;99.90;;;;;;4171224;28;20325;-75
2023/08/02 05:38:04;;;;;;;3.50;1.40;;;16.40;99.90;;;;;;4170952;28;20298;-75
2023/08/02 05:40:06;;;;;;;1.77;1.33;;;16.50;99.90;;;;;;4170792;28;20622;-75
2023/08/02 05:42:10;;;;;;;3.37;1.60;;;16.50;99.90;;;;;;4168924;28;20574;-74
2023/08/02 05:44:11;;;;;;;5.40;1.50;;;16.50;99.90;;;;;;4167747;28;20206;-74
2023/08/02 05:46:13;;;;;;;4.87;2.60;;;16.50;99.90;;;;;;4171183;28;20331;-75
2023/08/02 05:48:15;;;;;;;3.40;1.50;;;16.60;99.90;;;;;;4171210;28;20229;-74
2023/08/02 05:50:19;;;;;;;2.90;1.50;;;16.60;99.90;;;;;;4169110;28;20633;-74
2023/08/02 05:52:21;;;;;;;2.87;1.40;;;16.60;99.90;;;;;;4172883;28;20214;-74
2023/08/02 05:54:23;;;;;;;2.60;1.27;;;16.70;99.90;;;;;;4171510;28;20207;-75
2023/08/02 05:56:24;;;;;;;1.70;1.17;;;16.70;99.90;;;;;;4171184;28;20231;-75
2023/08/02 05:58:28;;;;;;;4.03;1.30;;;16.80;99.90;;;;;;4170229;28;20206;-74
2023/08/02 06:00:30;;;;;;;2.60;1.20;;;16.80;99.90;;;;;;4170104;28;20304;-75
2023/08/02 06:02:30;;;;;;;4.60;1.67;;;16.80;99.90;;;;;;4170080;28;20833;-75
2023/08/02 06:04:36;;;;;;;4.90;1.47;;;16.90;99.90;;;;;;4171790;28;20299;-75
2023/08/02 06:06:38;;;;;;;1.90;1.30;;;16.90;99.90;;;;;;4173066;28;20618;-74
2023/08/02 06:08:41;;;;;;;2.77;1.40;;;16.90;99.90;;;;;;4174865;28;20216;-74
2023/08/02 06:10:43;;;;;;;2.30;1.33;;;16.90;99.90;;;;;;4171862;28;20270;-75
2023/08/02 06:12:45;;;;;;;4.43;1.67;;;16.90;99.90;;;;;;4168238;28;20212;-75
2023/08/02 06:14:48;;;;;;;3.30;1.50;;;16.90;99.90;;;;;;4171670;28;20228;-75
2023/08/02 06:16:50;;;;;;;3.57;1.53;;;17.00;99.90;;;;;;4171527;28;20250;-75
2023/08/02 06:18:52;;;;;;;3.33;1.43;;;17.00;99.90;;;;;;4171697;28;20247;-75
2023/08/02 06:20:54;;;;;;;4.87;1.57;;;17.10;99.90;;;;;;4171207;28;20656;-75
2023/08/02 06:22:55;;;;;;;2.90;1.80;;;17.10;99.90;;;;;;4173386;28;20209;-75
2023/08/02 06:24:57;;;;;;;6.63;1.70;;;17.20;99.90;;;;;;4173281;28;20211;-74
2023/08/02 06:26:59;;;;;;;7.30;1.80;;;17.30;99.90;;;;;;4168138;28;20232;-74
2023/08/02 06:29:01;;;;;;;2.33;1.60;;;17.40;99.90;;;;;;4172749;28;20243;-75
2023/08/02 06:31:05;;;;;;;3.87;1.67;;;17.40;99.90;;;;;;4168947;28;20217;-74
2023/08/02 06:33:06;;;;;;;6.90;2.17;;;17.50;99.90;;;;;;4166064;28;20213;-74
2023/08/02 06:35:09;;;;;;;3.90;1.73;;;17.60;99.90;;;;;;4171132;28;20303;-75
2023/08/02 06:37:11;;;;;;;2.90;1.80;;;17.70;99.90;;;;;;4168293;28;20238;-75
2023/08/02 06:39:13;;;;;;;1.90;1.30;;;17.80;99.90;;;;;;4168443;28;20202;-75
2023/08/02 06:41:15;;;;;;;6.07;1.93;;;17.90;99.90;;;;;;4166340;28;20217;-74
2023/08/02 06:43:16;;;;;;;7.77;2.47;;;17.90;99.90;;;;;;4170358;28;20306;-75
2023/08/02 06:45:17;;;;;;;2.87;1.60;;;18.00;99.90;;;;;;4170891;28;20222;-75
2023/08/02 06:47:21;;;;;;;3.50;1.90;;;18.10;99.90;;;;;;4175388;28;20689;-75
2023/08/02 06:49:23;;;;;;;4.93;1.63;;;18.10;99.90;;;;;;4166302;28;20236;-75
2023/08/02 06:51:24;;;;;;;4.73;1.93;;;18.20;99.90;;;;;;4171424;28;20298;-75
2023/08/02 06:53:26;;;;;;;4.03;1.67;;;18.20;99.90;;;;;;4170003;28;20222;-75
2023/08/02 06:55:28;;;;;;;1.83;1.40;;;18.30;99.90;;;;;;4170533;28;20213;-75
2023/08/02 06:57:32;;;;;;;3.33;1.50;;;18.40;99.90;;;;;;4172580;28;20325;-75
2023/08/02 06:59:34;;;;;;;2.70;1.57;;;18.40;99.90;;;;;;4169435;28;20307;-75
2023/08/02 07:01:36;;;;;;;3.87;1.63;;;18.50;99.90;;;;;;4168656;28;20209;-75
2023/08/02 07:03:39;;;;;;;5.47;1.70;;;18.50;99.90;;;;;;4172487;28;20248;-75
2023/08/02 07:05:42;;;;;;;4.67;1.90;;;18.50;99.90;;;;;;4172352;28;20215;-74
2023/08/02 07:07:44;;;;;;;4.53;1.70;;;18.60;99.90;;;;;;4175051;28;20563;-74
2023/08/02 07:09:47;;;;;;;3.83;1.50;;;18.70;99.90;;;;;;4169207;28;20258;-75
2023/08/02 07:11:49;;;;;;;3.67;1.60;;;18.80;99.90;;;;;;4165666;28;20634;-75
2023/08/02 07:13:51;;;;;;;4.57;1.67;;;18.80;99.90;;;;;;4167119;28;20242;-75
2023/08/02 07:15:53;;;;;;;3.43;1.50;;;18.90;99.90;;;;;;4168009;28;20217;-75
2023/08/02 07:17:55;;;;;;;4.90;1.73;;;19.00;99.90;;;;;;4169691;28;20224;-74
2023/08/02 07:19:58;;;;;;;4.73;1.90;;;19.10;99.90;;;;;;4171319;28;20198;-75
2023/08/02 07:21:59;;;;;;;4.43;1.93;;;19.20;99.90;;;;;;4168276;28;20267;-74
2023/08/02 07:24:01;;;;;;;3.27;1.60;;;19.20;99.90;;;;;;4169860;28;20206;-75
2023/08/02 07:26:04;;;;;;;1.83;1.30;;;19.20;99.90;;;;;;4167720;28;20254;-74
2023/08/02 07:28:06;;;;;;;3.73;1.50;;;19.20;99.90;;;;;;4170952;28;20639;-75
2023/08/02 07:30:09;;;;;;;2.60;1.60;;;19.20;99.90;;;;;;4173404;28;20234;-75
2023/08/02 07:32:11;;;;;;;2.40;1.30;;;19.20;99.90;;;;;;4168488;28;20665;-75
2023/08/02 07:34:13;;;;;;;2.53;1.40;;;19.30;99.90;;;;;;4173212;28;20725;-75
2023/08/02 07:36:18;;;;;;;3.67;1.80;;;19.30;99.90;;;;;;4169745;28;20230;-75
2023/08/02 07:38:20;;;;;;;1.70;1.30;;;19.40;99.90;;;;;;4166269;28;20207;-75
2023/08/02 07:40:22;;;;;;;4.50;1.70;;;19.40;99.90;;;;;;4171832;28;20206;-75
2023/08/02 07:42:23;;;;;;;3.67;1.80;;;19.40;99.90;;;;;;4169652;28;20298;-75
2023/08/02 07:44:25;;;;;;;4.63;1.60;;;19.40;99.90;;;;;;4168431;28;20211;-75
2023/08/02 07:46:27;;;;;;;3.30;1.40;;;19.40;99.90;;;;;;4166103;28;20690;-75
2023/08/02 07:48:28;;;;;;;2.43;1.47;;;19.50;99.90;;;;;;4170694;28;20306;-75
2023/08/02 07:50:30;;;;;;;4.93;1.70;;;19.50;99.90;;;;;;4168828;28;20211;-74
2023/08/02 07:52:35;;;;;;;3.83;1.57;;;19.60;99.90;;;;;;4170401;28;20666;-75
2023/08/02 07:54:37;;;;;;;3.37;1.60;;;19.60;99.90;;;;;;4169609;28;20218;-75
2023/08/02 07:56:39;;;;;;;3.93;1.60;;;19.70;99.90;;;;;;4170333;28;20298;-75
2023/08/02 07:58:41;;;;;;;2.57;1.67;;;19.70;99.90;;;;;;4168578;28;20301;-75
2023/08/02 08:00:46;;;;;;;4.03;1.60;;;19.80;99.90;;;;;;4166485;28;20217;-75
2023/08/02 08:02:48;;;;;;;2.40;1.70;;;19.90;99.90;;;;;;4168941;28;20238;-75
2023/08/02 08:04:49;;;;;;;3.10;1.50;;;19.90;99.90;;;;;;4172903;28;20309;-75
2023/08/02 08:06:53;;;;;;;3.17;1.73;;;19.90;99.90;;;;;;4169259;28;20227;-75
2023/08/02 08:08:57;;;;;;;4.77;1.70;;;20.00;99.90;;;;;;4172075;28;20226;-75
2023/08/02 08:10:58;;;;;;;5.67;1.90;;;20.00;99.90;;;;;;4166558;28;20246;-75
2023/08/02 08:13:00;;;;;;;3.13;1.57;;;20.00;99.90;;;;;;4169386;28;20206;-75
2023/08/02 08:15:01;;;;;;;3.47;1.60;;;20.00;99.90;;;;;;4169239;28;20241;-75
2023/08/02 08:17:04;;;;;;;3.30;1.60;;;20.10;99.90;;;;;;4166609;28;20652;-75
2023/08/02 08:19:06;;;;;;;4.00;1.90;;;20.30;99.90;;;;;;4166458;28;20690;-75
2023/08/02 08:21:08;;;;;;;4.27;1.80;;;20.40;99.90;;;;;;4170665;28;20210;-75
2023/08/02 08:23:09;;;;;;;2.57;1.50;;;20.50;99.90;;;;;;4167452;28;20668;-75
2023/08/02 08:25:13;;;;;;;4.73;1.87;;;20.50;99.90;;;;;;4168695;28;20210;-75
2023/08/02 08:27:15;;;;;;;3.37;1.63;;;20.60;99.90;;;;;;4166493;28;20265;-75
2023/08/02 08:29:17;;;;;;;5.53;1.90;;;20.70;99.90;;;;;;4170109;28;20260;-75
2023/08/02 08:31:18;;;;;;;2.60;1.60;;;20.70;99.90;;;;;;4167645;28;20301;-75
2023/08/02 08:33:20;;;;;;;5.30;1.90;;;20.70;99.90;;;;;;4171171;28;20240;-74
2023/08/02 08:35:22;;;;;;;2.83;1.90;;;20.70;99.90;;;;;;4163635;28;20207;-74
2023/08/02 08:37:27;;;;;;;4.90;1.90;;;20.70;99.90;;;;;;4167421;28;20898;-74
2023/08/02 08:39:29;;;;;;;3.40;1.90;;;20.70;99.90;;;;;;4169124;28;20262;-78
2023/08/02 08:41:32;;;;;;;4.63;1.60;;;20.60;99.90;;;;;;4168904;28;20767;-74
2023/08/02 08:43:35;;;;;;;3.10;1.80;;;20.60;99.90;;;;;;4165396;28;20248;-76
2023/08/02 08:45:37;;;;;;;4.17;1.77;;;20.60;99.90;;;;;;4170987;28;20317;-74
2023/08/02 08:47:41;;;;;;;3.57;1.93;;;20.50;99.90;;;;;;4178613;28;20581;-74
2023/08/02 08:49:46;;;;;;;4.23;2.03;;;20.50;99.90;;;;;;4178188;28;20727;-76
2023/08/02 08:51:53;;;;;;;4.53;1.80;;;20.50;99.90;;;;;;4174747;28;20573;-74
2023/08/02 08:53:55;;;;;;;5.23;2.10;;;20.50;99.90;;;;;;4177687;28;20229;-74
2023/08/02 08:55:59;;;;;;;3.40;2.23;;;20.50;99.90;;;;;;4172042;28;20668;-76
2023/08/02 08:58:02;;;;;;;3.50;2.33;;;20.60;99.90;;;;;;4175360;28;20238;-74
2023/08/02 09:00:06;;;;;;;3.63;1.63;;;20.60;99.90;;;;;;4182088;28;20696;-75
2023/08/02 09:02:09;;;;;;;5.60;2.30;;;20.80;99.90;;;;;;4180463;28;20265;-77
2023/08/02 09:04:11;;;;;;;2.43;1.70;;;20.90;99.90;;;;;;4181827;28;20210;-74
2023/08/02 09:06:15;;;;;;;3.13;1.87;;;20.90;99.90;;;;;;4176100;28;20243;-79
2023/08/02 09:08:17;;;;;;;5.50;1.60;;;21.00;99.90;;;;;;4172152;28;20215;-74
2023/08/02 09:10:21;;;;;;;4.97;1.97;;;21.10;99.90;;;;;;4173985;28;20227;-74
2023/08/02 09:12:24;;;;;;;2.83;1.80;;;21.10;99.90;;;;;;4167954;28;20677;-75
2023/08/02 09:14:28;;;;;;;4.63;1.87;;;21.20;99.90;;;;;;4179908;28;20212;-76
2023/08/02 09:16:30;;;;;;;5.03;1.83;;;21.20;99.90;;;;;;4173068;28;20274;-75
2023/08/02 09:18:35;;;;;;;5.53;2.10;;;21.30;99.90;;;;;;4176307;28;20299;-75
2023/08/02 09:20:37;;;;;;;5.37;1.77;;;21.40;99.90;;;;;;4176174;28;20205;-74
2023/08/02 09:22:38;;;;;;;6.07;2.00;;;21.50;99.90;;;;;;4169129;28;20208;-75
2023/08/02 09:24:41;;;;;;;4.87;2.20;;;21.50;99.90;;;;;;4176240;28;20202;-74
2023/08/02 09:26:43;;;;;;;3.87;2.07;;;21.60;99.90;;;;;;4174532;28;20236;-75
2023/08/02 09:29:00;;;;;;;4.73;2.37;;;21.60;99.90;;;;;;4181490;28;20223;-76
2023/08/02 09:31:15;;;;;;;5.40;2.03;;;21.70;99.90;;;;;;4180077;28;20653;-74
2023/08/02 09:33:16;;;;;;;4.77;2.00;;;21.70;99.90;;;;;;4167261;28;20238;-76
2023/08/02 09:35:18;;;;;;;5.27;1.97;;;21.80;99.90;;;;;;4178219;28;20219;-74
2023/08/02 09:37:30;;;;;;;5.90;2.40;;;21.90;99.90;;;;;;4173070;28;20325;-74
2023/08/02 09:39:32;;;;;;;3.77;1.80;;;21.90;99.90;;;;;;4177003;28;20687;-75
2023/08/02 09:41:34;;;;;;;5.13;2.00;;;22.00;99.90;;;;;;4168408;28;20656;-75
2023/08/02 09:43:35;;;;;;;3.83;1.80;;;22.00;99.90;;;;;;4168847;28;20249;-75
2023/08/02 09:45:37;;;;;;;3.60;1.83;;;22.10;99.90;;;;;;4176136;28;20217;-74
2023/08/02 09:47:51;;;;;;;4.90;2.00;;;22.10;99.90;;;;;;4176918;28;20666;-76
2023/08/02 09:50:09;;;;;;;5.87;2.40;;;22.10;99.90;;;;;;4172438;28;20320;-77
2023/08/02 09:52:26;;;;;;;3.87;1.90;;;22.00;99.90;;;;;;4170102;28;20217;-77
2023/08/02 09:54:30;;;;;;;3.83;2.30;;;22.10;99.90;;;;;;4175647;28;20249;-75
2023/08/02 09:56:34;;;;;;;4.30;2.07;;;22.20;99.90;;;;;;4168084;28;20269;-75
2023/08/02 09:58:39;;;;;;;4.60;2.20;;;22.30;99.90;;;;;;4170182;28;20226;-76
2023/08/02 10:00:41;;;;;;;4.43;1.70;;;22.30;99.90;;;;;;4175091;28;20213;-75
2023/08/02 10:02:46;;;;;;;5.23;2.20;;;22.30;99.90;;;;;;4174725;28;20728;-74
2023/08/02 10:04:49;;;;;;;3.50;1.90;;;22.30;99.90;;;;;;4173252;28;20306;-75
2023/08/02 10:06:56;;;;;;;2.97;1.90;;;22.30;99.90;;;;;;4177202;28;20317;-75
2023/08/02 10:09:04;;;;;;;6.53;2.80;;;22.40;99.90;;;;;;4173400;28;20221;-75
2023/08/02 10:11:07;;;;;;;10.07;3.77;;;22.40;99.90;;;;;;4174086;28;20217;-75
2023/08/02 10:13:13;;;;;;;5.97;2.13;;;22.60;99.90;;;;;;4176245;28;20221;-75
2023/08/02 10:15:16;;;;;;;2.83;1.80;;;22.70;99.90;;;;;;4175682;28;20253;-75
2023/08/02 10:17:19;;;;;;;5.83;2.00;;;22.80;99.90;;;;;;4171070;28;20322;-75
2023/08/02 10:19:23;;;;;;;6.07;1.77;;;22.90;99.90;;;;;;4179289;28;20207;-76
2023/08/02 10:21:26;;;;;;;3.77;1.87;;;23.00;99.90;;;;;;4168481;28;20385;-75
2023/08/02 10:23:28;;;;;;;3.73;1.90;;;23.10;99.90;;;;;;4168255;28;20229;-75
2023/08/02 10:25:33;;;;;;;6.67;1.70;;;23.10;99.90;;;;;;4176219;28;20206;-77
2023/08/02 10:27:36;;;;;;;5.13;2.10;;;23.10;99.90;;;;;;4170481;28;20247;-74
2023/08/02 10:29:39;;;;;;;4.47;1.50;;;23.10;99.90;;;;;;4169456;28;20257;-75
2023/08/02 10:31:41;;;;;;;3.43;1.77;;;23.00;99.90;;;;;;4165367;28;20718;-75
2023/08/02 10:33:43;;;;;;;6.83;1.90;;;23.00;99.90;;;;;;4180700;28;20217;-75
2023/08/02 10:36:00;;;;;;;2.97;1.63;;;22.90;99.90;;;;;;4172708;28;20575;-75
2023/08/02 10:38:02;;;;;;;5.57;2.00;;;22.70;99.90;;;;;;4176427;28;20296;-75
2023/08/02 10:40:05;;;;;;;5.73;1.70;;;22.60;99.90;;;;;;4176445;28;20324;-75